sensor_id;sensor_type;location;lat;lon;timestamp;temperature;humidity
25342;DHT22;13298;48.792;9.154;2023-04-03T00:00:32;3.20;99.90
25342;DHT22;13298;48.792;9.154;2023-04-03T00:02:58;3.10;99.90
25342;DHT22;13298;48.792;9.154;2023-04-03T00:05:24;3.10;99.90
25342;DHT22;13298;48.792;9.154;2023-04-03T00:07:49;3.10;99.90
25342;DHT22;13298;48.792;9.154;2023-04-03T00:10:15;3.10;99.90
25342;DHT22;13298;48.792;9.154;2023-04-03T00:12:41;3.00;99.90
25342;DHT22;13298;48.792;9.154;2023-04-03T00:15:08;3.00;99.90
25342;DHT22;13298;48.792;9.154;2023-04-03T00:17:34;2.90;99.90
25342;DHT22;13298;48.792;9.154;2023-04-03T00:20:00;2.90;99.90
25342;DHT22;13298;48.792;9.154;2023-04-03T00:22:26;3.00;99.90
25342;DHT22;13298;48.792;9.154;2023-04-03T00:24:54;3.00;99.90
25342;DHT22;13298;48.792;9.154;2023-04-03T00:27:20;3.00;99.90
25342;DHT22;13298;48.792;9.154;2023-04-03T00:29:46;3.00;99.90
25342;DHT22;13298;48.792;9.154;2023-04-03T00:32:11;3.00;99.90
25342;DHT22;13298;48.792;9.154;2023-04-03T00:34:37;3.00;99.90
25342;DHT22;13298;48.792;9.154;2023-04-03T00:37:03;3.00;99.90
25342;DHT22;13298;48.792;9.154;2023-04-03T00:39:29;3.00;99.90
25342;DHT22;13298;48.792;9.154;2023-04-03T00:41:55;3.00;99.90
25342;DHT22;13298;48.792;9.154;2023-04-03T00:46:58;3.00;99.90
25342;DHT22;13298;48.792;9.154;2023-04-03T00:49:25;3.00;99.90
25342;DHT22;13298;48.792;9.154;2023-04-03T00:51:52;3.00;99.90
25342;DHT22;13298;48.792;9.154;2023-04-03T00:54:18;3.00;99.90
25342;DHT22;13298;48.792;9.154;2023-04-03T00:56:44;3.00;99.90
25342;DHT22;13298;48.792;9.154;2023-04-03T00:59:15;3.00;99.90
25342;DHT22;13298;48.792;9.154;2023-04-03T01:01:48;2.90;99.90
25342;DHT22;13298;48.792;9.154;2023-04-03T01:04:40;2.90;99.90
25342;DHT22;13298;48.792;9.154;2023-04-03T01:07:18;2.90;99.90
25342;DHT22;13298;48.792;9.154;2023-04-03T01:09:48;2.90;99.90
25342;DHT22;13298;48.792;9.154;2023-04-03T01:12:21;2.90;99.90
25342;DHT22;13298;48.792;9.154;2023-04-03T01:14:51;3.00;99.90
25342;DHT22;13298;48.792;9.154;2023-04-03T01:25:40;2.90;99.90
25342;DHT22;13298;48.792;9.154;2023-04-03T01:28:23;2.90;99.90
25342;DHT22;13298;48.792;9.154;2023-04-03T01:30:58;2.80;99.90
25342;DHT22;13298;48.792;9.154;2023-04-03T01:33:26;2.80;99.90
25342;DHT22;13298;48.792;9.154;2023-04-03T01:35:52;2.80;99.90
25342;DHT22;13298;48.792;9.154;2023-04-03T01:38:17;2.80;99.90
25342;DHT22;13298;48.792;9.154;2023-04-03T01:40:43;2.80;99.90
25342;DHT22;13298;48.792;9.154;2023-04-03T01:43:09;2.80;99.90
25342;DHT22;13298;48.792;9.154;2023-04-03T01:45:35;2.80;99.90
25342;DHT22;13298;48.792;9.154;2023-04-03T01:48:01;2.80;99.90
25342;DHT22;13298;48.792;9.154;2023-04-03T01:50:26;2.80;99.90
25342;DHT22;13298;48.792;9.154;2023-04-03T01:52:52;2.80;99.90
25342;DHT22;13298;48.792;9.154;2023-04-03T01:55:18;2.80;99.90
25342;DHT22;13298;48.792;9.154;2023-04-03T01:57:43;2.80;99.90
25342;DHT22;13298;48.792;9.154;2023-04-03T02:00:10;2.80;99.90
25342;DHT22;13298;48.792;9.154;2023-04-03T02:02:36;2.70;99.90
25342;DHT22;13298;48.792;9.154;2023-04-03T02:05:01;2.80;99.90
25342;DHT22;13298;48.792;9.154;2023-04-03T02:07:27;2.80;99.90
25342;DHT22;13298;48.792;9.154;2023-04-03T02:09:52;2.70;99.90
25342;DHT22;13298;48.792;9.154;2023-04-03T02:12:18;2.70;99.90
25342;DHT22;13298;48.792;9.154;2023-04-03T02:14:44;2.80;99.90
25342;DHT22;13298;48.792;9.154;2023-04-03T02:17:10;2.80;99.90
25342;DHT22;13298;48.792;9.154;2023-04-03T02:19:36;2.80;99.90
25342;DHT22;13298;48.792;9.154;2023-04-03T02:22:03;2.90;99.90
25342;DHT22;13298;48.792;9.154;2023-04-03T02:24:30;2.80;99.90
25342;DHT22;13298;48.792;9.154;2023-04-03T02:26:57;2.80;99.90
25342;DHT22;13298;48.792;9.154;2023-04-03T02:29:23;2.80;99.90
25342;DHT22;13298;48.792;9.154;2023-04-03T02:31:49;2.80;99.90
25342;DHT22;13298;48.792;9.154;2023-04-03T02:34:15;2.80;99.90
25342;DHT22;13298;48.792;9.154;2023-04-03T02:36:41;2.90;99.90
25342;DHT22;13298;48.792;9.154;2023-04-03T02:39:07;2.80;99.90
25342;DHT22;13298;48.792;9.154;2023-04-03T02:41:33;2.90;99.90
25342;DHT22;13298;48.792;9.154;2023-04-03T02:44:05;2.90;99.90
25342;DHT22;13298;48.792;9.154;2023-04-03T02:46:32;2.90;99.90
25342;DHT22;13298;48.792;9.154;2023-04-03T02:48:57;2.90;99.90
25342;DHT22;13298;48.792;9.154;2023-04-03T02:51:23;2.90;99.90
25342;DHT22;13298;48.792;9.154;2023-04-03T02:53:50;2.90;99.90
25342;DHT22;13298;48.792;9.154;2023-04-03T02:56:17;3.00;99.90
25342;DHT22;13298;48.792;9.154;2023-04-03T02:58:43;3.00;99.90
25342;DHT22;13298;48.792;9.154;2023-04-03T03:01:09;2.90;99.90
25342;DHT22;13298;48.792;9.154;2023-04-03T03:03:35;3.00;99.90
25342;DHT22;13298;48.792;9.154;2023-04-03T03:06:06;3.00;99.90
25342;DHT22;13298;48.792;9.154;2023-04-03T03:08:33;2.90;99.90
25342;DHT22;13298;48.792;9.154;2023-04-03T03:11:00;3.00;99.90
25342;DHT22;13298;48.792;9.154;2023-04-03T03:13:26;3.00;99.90
25342;DHT22;13298;48.792;9.154;2023-04-03T03:15:52;3.00;99.90
25342;DHT22;13298;48.792;9.154;2023-04-03T03:18:18;3.00;99.90
25342;DHT22;13298;48.792;9.154;2023-04-03T03:20:43;3.00;99.90
25342;DHT22;13298;48.792;9.154;2023-04-03T03:23:09;3.00;99.90
25342;DHT22;13298;48.792;9.154;2023-04-03T03:25:39;3.00;99.90
25342;DHT22;13298;48.792;9.154;2023-04-03T03:28:05;3.00;99.90
25342;DHT22;13298;48.792;9.154;2023-04-03T03:30:31;3.00;99.90
25342;DHT22;13298;48.792;9.154;2023-04-03T03:32:56;3.10;99.90
25342;DHT22;13298;48.792;9.154;2023-04-03T03:35:22;3.10;99.90
25342;DHT22;13298;48.792;9.154;2023-04-03T03:37:48;3.10;99.90
25342;DHT22;13298;48.792;9.154;2023-04-03T03:40:14;3.10;99.90
25342;DHT22;13298;48.792;9.154;2023-04-03T03:42:39;3.10;99.90
25342;DHT22;13298;48.792;9.154;2023-04-03T03:45:06;3.10;99.90
25342;DHT22;13298;48.792;9.154;2023-04-03T03:47:32;3.10;99.90
25342;DHT22;13298;48.792;9.154;2023-04-03T03:49:58;3.10;99.90
25342;DHT22;13298;48.792;9.154;2023-04-03T03:52:23;3.10;99.90
25342;DHT22;13298;48.792;9.154;2023-04-03T03:54:49;3.10;99.90
25342;DHT22;13298;48.792;9.154;2023-04-03T03:57:15;3.10;99.90
25342;DHT22;13298;48.792;9.154;2023-04-03T03:59:40;3.10;99.90
25342;DHT22;13298;48.792;9.154;2023-04-03T04:02:07;3.20;99.90
25342;DHT22;13298;48.792;9.154;2023-04-03T04:04:33;3.10;99.90
25342;DHT22;13298;48.792;9.154;2023-04-03T04:06:59;3.20;99.90
25342;DHT22;13298;48.792;9.154;2023-04-03T04:09:26;3.10;99.90
25342;DHT22;13298;48.792;9.154;2023-04-03T04:11:52;3.10;99.90
25342;DHT22;13298;48.792;9.154;2023-04-03T04:14:19;3.10;99.90
25342;DHT22;13298;48.792;9.154;2023-04-03T04:16:46;3.20;99.90
25342;DHT22;13298;48.792;9.154;2023-04-03T04:19:13;3.20;99.90
25342;DHT22;13298;48.792;9.154;2023-04-03T04:21:39;3.20;99.90
25342;DHT22;13298;48.792;9.154;2023-04-03T04:24:05;3.20;99.90
25342;DHT22;13298;48.792;9.154;2023-04-03T04:26:31;3.20;99.90
25342;DHT22;13298;48.792;9.154;2023-04-03T04:28:57;3.20;99.90
25342;DHT22;13298;48.792;9.154;2023-04-03T04:31:23;3.20;99.90
25342;DHT22;13298;48.792;9.154;2023-04-03T04:33:48;3.20;99.90
25342;DHT22;13298;48.792;9.154;2023-04-03T04:36:14;3.20;99.90
25342;DHT22;13298;48.792;9.154;2023-04-03T04:38:40;3.20;99.90
25342;DHT22;13298;48.792;9.154;2023-04-03T04:41:07;3.20;99.90
25342;DHT22;13298;48.792;9.154;2023-04-03T04:43:33;3.20;99.90
25342;DHT22;13298;48.792;9.154;2023-04-03T04:46:03;3.30;99.90
25342;DHT22;13298;48.792;9.154;2023-04-03T04:48:30;3.30;99.90
25342;DHT22;13298;48.792;9.154;2023-04-03T04:50:56;3.20;99.90
25342;DHT22;13298;48.792;9.154;2023-04-03T04:53:22;3.20;99.90
25342;DHT22;13298;48.792;9.154;2023-04-03T04:55:47;3.20;99.90
25342;DHT22;13298;48.792;9.154;2023-04-03T04:58:13;3.10;99.90
25342;DHT22;13298;48.792;9.154;2023-04-03T05:00:39;3.10;99.90
25342;DHT22;13298;48.792;9.154;2023-04-03T05:03:05;3.20;99.90
25342;DHT22;13298;48.792;9.154;2023-04-03T05:05:31;3.20;99.90
25342;DHT22;13298;48.792;9.154;2023-04-03T05:07:57;3.20;99.90
25342;DHT22;13298;48.792;9.154;2023-04-03T05:10:22;3.20;99.90
25342;DHT22;13298;48.792;9.154;2023-04-03T05:12:48;3.30;99.90
25342;DHT22;13298;48.792;9.154;2023-04-03T05:15:14;3.30;99.90
25342;DHT22;13298;48.792;9.154;2023-04-03T05:17:40;3.30;99.90
25342;DHT22;13298;48.792;9.154;2023-04-03T05:20:06;3.30;99.90
25342;DHT22;13298;48.792;9.154;2023-04-03T05:22:32;3.40;99.90
25342;DHT22;13298;48.792;9.154;2023-04-03T05:24:58;3.40;99.90
25342;DHT22;13298;48.792;9.154;2023-04-03T05:27:23;3.40;99.90
25342;DHT22;13298;48.792;9.154;2023-04-03T05:29:50;3.40;99.90
25342;DHT22;13298;48.792;9.154;2023-04-03T05:32:16;3.40;99.90
25342;DHT22;13298;48.792;9.154;2023-04-03T05:34:42;3.40;99.90
25342;DHT22;13298;48.792;9.154;2023-04-03T05:37:07;3.40;99.90
25342;DHT22;13298;48.792;9.154;2023-04-03T05:39:33;3.40;99.90
25342;DHT22;13298;48.792;9.154;2023-04-03T05:41:59;3.50;99.90
25342;DHT22;13298;48.792;9.154;2023-04-03T05:44:25;3.50;99.90
25342;DHT22;13298;48.792;9.154;2023-04-03T05:46:51;3.60;99.90
25342;DHT22;13298;48.792;9.154;2023-04-03T05:49:16;3.60;99.90
25342;DHT22;13298;48.792;9.154;2023-04-03T05:51:42;3.60;99.90
25342;DHT22;13298;48.792;9.154;2023-04-03T05:54:16;3.60;99.90
25342;DHT22;13298;48.792;9.154;2023-04-03T05:56:44;3.60;99.90
25342;DHT22;13298;48.792;9.154;2023-04-03T05:59:10;3.50;99.90
25342;DHT22;13298;48.792;9.154;2023-04-03T06:01:36;3.50;99.90
25342;DHT22;13298;48.792;9.154;2023-04-03T06:04:02;3.60;99.90
25342;DHT22;13298;48.792;9.154;2023-04-03T06:09:22;3.70;99.90
25342;DHT22;13298;48.792;9.154;2023-04-03T06:11:49;3.70;99.90
25342;DHT22;13298;48.792;9.154;2023-04-03T06:14:15;3.70;99.90
25342;DHT22;13298;48.792;9.154;2023-04-03T06:16:41;3.70;99.90
25342;DHT22;13298;48.792;9.154;2023-04-03T06:19:10;3.80;99.90
25342;DHT22;13298;48.792;9.154;2023-04-03T06:21:36;3.90;99.90
25342;DHT22;13298;48.792;9.154;2023-04-03T06:24:06;3.90;99.90
25342;DHT22;13298;48.792;9.154;2023-04-03T06:26:33;3.90;99.90
25342;DHT22;13298;48.792;9.154;2023-04-03T06:28:59;4.00;99.90
25342;DHT22;13298;48.792;9.154;2023-04-03T06:31:25;4.00;99.90
25342;DHT22;13298;48.792;9.154;2023-04-03T06:33:51;4.10;99.90
25342;DHT22;13298;48.792;9.154;2023-04-03T06:36:19;4.00;99.90
25342;DHT22;13298;48.792;9.154;2023-04-03T06:38:46;4.10;99.90
25342;DHT22;13298;48.792;9.154;2023-04-03T06:41:12;4.10;99.90
25342;DHT22;13298;48.792;9.154;2023-04-03T06:43:38;4.20;99.90
25342;DHT22;13298;48.792;9.154;2023-04-03T06:46:03;4.20;99.90
25342;DHT22;13298;48.792;9.154;2023-04-03T06:48:30;4.40;99.90
25342;DHT22;13298;48.792;9.154;2023-04-03T06:50:56;4.40;99.90
25342;DHT22;13298;48.792;9.154;2023-04-03T06:53:21;4.40;99.90
25342;DHT22;13298;48.792;9.154;2023-04-03T06:55:48;4.50;99.90
25342;DHT22;13298;48.792;9.154;2023-04-03T06:58:14;4.50;99.90
25342;DHT22;13298;48.792;9.154;2023-04-03T07:00:40;4.40;99.90
25342;DHT22;13298;48.792;9.154;2023-04-03T07:03:06;4.40;99.90
25342;DHT22;13298;48.792;9.154;2023-04-03T07:05:32;4.40;99.90
25342;DHT22;13298;48.792;9.154;2023-04-03T07:07:58;4.40;99.90
25342;DHT22;13298;48.792;9.154;2023-04-03T07:10:24;4.50;99.90
25342;DHT22;13298;48.792;9.154;2023-04-03T07:12:50;4.60;99.90
25342;DHT22;13298;48.792;9.154;2023-04-03T07:15:16;4.60;99.90
25342;DHT22;13298;48.792;9.154;2023-04-03T07:17:42;4.70;99.90
25342;DHT22;13298;48.792;9.154;2023-04-03T07:20:08;4.80;99.90
25342;DHT22;13298;48.792;9.154;2023-04-03T07:22:34;4.90;99.90
25342;DHT22;13298;48.792;9.154;2023-04-03T07:25:00;5.00;99.90
25342;DHT22;13298;48.792;9.154;2023-04-03T07:27:26;5.00;99.90
25342;DHT22;13298;48.792;9.154;2023-04-03T07:29:52;5.10;99.90
25342;DHT22;13298;48.792;9.154;2023-04-03T07:32:17;5.20;99.90
25342;DHT22;13298;48.792;9.154;2023-04-03T07:34:43;5.30;99.90
25342;DHT22;13298;48.792;9.154;2023-04-03T07:37:10;5.40;99.90
25342;DHT22;13298;48.792;9.154;2023-04-03T07:39:36;5.40;99.90
25342;DHT22;13298;48.792;9.154;2023-04-03T07:42:02;5.40;99.90
25342;DHT22;13298;48.792;9.154;2023-04-03T07:44:28;5.50;99.90
25342;DHT22;13298;48.792;9.154;2023-04-03T07:46:54;5.60;99.90
25342;DHT22;13298;48.792;9.154;2023-04-03T07:49:22;5.70;99.90
25342;DHT22;13298;48.792;9.154;2023-04-03T07:51:51;5.80;99.90
25342;DHT22;13298;48.792;9.154;2023-04-03T07:54:18;5.90;99.90
25342;DHT22;13298;48.792;9.154;2023-04-03T07:56:43;6.00;99.90
25342;DHT22;13298;48.792;9.154;2023-04-03T07:59:10;5.90;99.90
25342;DHT22;13298;48.792;9.154;2023-04-03T08:01:36;6.00;99.90
25342;DHT22;13298;48.792;9.154;2023-04-03T08:04:02;6.00;99.90
25342;DHT22;13298;48.792;9.154;2023-04-03T08:06:28;6.10;99.90
25342;DHT22;13298;48.792;9.154;2023-04-03T08:09:00;6.20;99.90
25342;DHT22;13298;48.792;9.154;2023-04-03T08:11:26;6.20;99.90
25342;DHT22;13298;48.792;9.154;2023-04-03T08:13:52;6.30;99.90
25342;DHT22;13298;48.792;9.154;2023-04-03T08:16:20;6.20;99.90
25342;DHT22;13298;48.792;9.154;2023-04-03T08:18:47;6.20;99.90
25342;DHT22;13298;48.792;9.154;2023-04-03T08:21:13;6.20;99.90
25342;DHT22;13298;48.792;9.154;2023-04-03T08:23:40;6.30;99.90
25342;DHT22;13298;48.792;9.154;2023-04-03T08:26:11;6.20;99.90
25342;DHT22;13298;48.792;9.154;2023-04-03T08:28:40;6.20;99.90
25342;DHT22;13298;48.792;9.154;2023-04-03T08:31:09;6.30;99.90
25342;DHT22;13298;48.792;9.154;2023-04-03T08:33:36;6.40;99.90
25342;DHT22;13298;48.792;9.154;2023-04-03T08:36:14;6.60;99.90
25342;DHT22;13298;48.792;9.154;2023-04-03T08:38:50;6.70;99.90
25342;DHT22;13298;48.792;9.154;2023-04-03T08:41:36;6.90;99.90
25342;DHT22;13298;48.792;9.154;2023-04-03T08:44:31;7.00;99.90
25342;DHT22;13298;48.792;9.154;2023-04-03T08:47:17;7.00;99.90
25342;DHT22;13298;48.792;9.154;2023-04-03T08:50:35;6.90;99.90
25342;DHT22;13298;48.792;9.154;2023-04-03T08:52:48;6.90;99.90
25342;DHT22;13298;48.792;9.154;2023-04-03T08:55:31;6.90;99.90
25342;DHT22;13298;48.792;9.154;2023-04-03T08:58:05;6.80;99.90
25342;DHT22;13298;48.792;9.154;2023-04-03T09:01:17;6.80;99.90
25342;DHT22;13298;48.792;9.154;2023-04-03T09:03:46;7.00;99.90
25342;DHT22;13298;48.792;9.154;2023-04-03T09:06:21;7.00;99.90
25342;DHT22;13298;48.792;9.154;2023-04-03T09:09:15;7.00;99.90
25342;DHT22;13298;48.792;9.154;2023-04-03T09:18:05;7.10;99.90
25342;DHT22;13298;48.792;9.154;2023-04-03T09:23:40;7.10;99.90
25342;DHT22;13298;48.792;9.154;2023-04-03T09:26:34;7.30;99.90
25342;DHT22;13298;48.792;9.154;2023-04-03T09:29:07;7.20;99.90
25342;DHT22;13298;48.792;9.154;2023-04-03T09:31:38;7.10;99.90
25342;DHT22;13298;48.792;9.154;2023-04-03T09:34:35;6.80;99.90
25342;DHT22;13298;48.792;9.154;2023-04-03T09:37:04;6.50;99.90
25342;DHT22;13298;48.792;9.154;2023-04-03T09:39:52;6.40;99.90
25342;DHT22;13298;48.792;9.154;2023-04-03T09:42:21;6.40;99.90
25342;DHT22;13298;48.792;9.154;2023-04-03T09:45:00;6.50;99.90
25342;DHT22;13298;48.792;9.154;2023-04-03T09:47:29;6.70;99.90
25342;DHT22;13298;48.792;9.154;2023-04-03T09:52:46;6.70;99.90
25342;DHT22;13298;48.792;9.154;2023-04-03T09:57:46;6.70;99.90
25342;DHT22;13298;48.792;9.154;2023-04-03T10:00:27;6.80;99.90
25342;DHT22;13298;48.792;9.154;2023-04-03T10:02:56;6.80;99.90
25342;DHT22;13298;48.792;9.154;2023-04-03T10:05:48;6.70;99.90
25342;DHT22;13298;48.792;9.154;2023-04-03T10:10:44;6.90;99.90
25342;DHT22;13298;48.792;9.154;2023-04-03T10:13:16;7.00;99.90
25342;DHT22;13298;48.792;9.154;2023-04-03T10:18:42;7.20;99.90
25342;DHT22;13298;48.792;9.154;2023-04-03T10:21:29;7.40;99.90
25342;DHT22;13298;48.792;9.154;2023-04-03T10:24:10;7.60;99.90
25342;DHT22;13298;48.792;9.154;2023-04-03T10:26:43;7.80;99.90
25342;DHT22;13298;48.792;9.154;2023-04-03T10:32:23;8.00;99.90
25342;DHT22;13298;48.792;9.154;2023-04-03T10:40:29;7.70;99.90
25342;DHT22;13298;48.792;9.154;2023-04-03T10:46:06;7.30;99.90
25342;DHT22;13298;48.792;9.154;2023-04-03T10:48:57;7.20;99.90
25342;DHT22;13298;48.792;9.154;2023-04-03T10:51:48;7.20;99.90
25342;DHT22;13298;48.792;9.154;2023-04-03T10:54:26;7.00;99.90
25342;DHT22;13298;48.792;9.154;2023-04-03T10:57:03;7.00;99.90
25342;DHT22;13298;48.792;9.154;2023-04-03T11:02:43;6.70;99.90
25342;DHT22;13298;48.792;9.154;2023-04-03T11:05:29;6.80;99.90
25342;DHT22;13298;48.792;9.154;2023-04-03T11:08:17;6.80;99.90
25342;DHT22;13298;48.792;9.154;2023-04-03T11:10:52;6.80;99.90
25342;DHT22;13298;48.792;9.154;2023-04-03T11:13:33;6.90;99.90
25342;DHT22;13298;48.792;9.154;2023-04-03T11:16:01;7.10;99.90
25342;DHT22;13298;48.792;9.154;2023-04-03T11:18:57;7.30;99.90
25342;DHT22;13298;48.792;9.154;2023-04-03T11:21:39;7.50;99.90
25342;DHT22;13298;48.792;9.154;2023-04-03T11:24:17;7.70;99.90
25342;DHT22;13298;48.792;9.154;2023-04-03T11:26:49;7.70;99.90
25342;DHT22;13298;48.792;9.154;2023-04-03T11:29:22;7.60;99.90
25342;DHT22;13298;48.792;9.154;2023-04-03T11:32:23;7.40;99.90
25342;DHT22;13298;48.792;9.154;2023-04-03T11:34:59;7.20;99.90
25342;DHT22;13298;48.792;9.154;2023-04-03T11:42:45;7.10;99.90
25342;DHT22;13298;48.792;9.154;2023-04-03T11:50:53;7.50;99.90
25342;DHT22;13298;48.792;9.154;2023-04-03T11:53:31;7.50;99.90
25342;DHT22;13298;48.792;9.154;2023-04-03T11:56:02;7.70;99.90
25342;DHT22;13298;48.792;9.154;2023-04-03T12:04:14;8.00;99.90
25342;DHT22;13298;48.792;9.154;2023-04-03T12:06:50;8.10;99.90
25342;DHT22;13298;48.792;9.154;2023-04-03T12:12:21;8.40;99.60
25342;DHT22;13298;48.792;9.154;2023-04-03T12:21:16;8.20;99.90
25342;DHT22;13298;48.792;9.154;2023-04-03T12:32:17;8.10;98.90
25342;DHT22;13298;48.792;9.154;2023-04-03T12:41:21;8.30;99.00
25342;DHT22;13298;48.792;9.154;2023-04-03T12:44:19;8.50;98.80
25342;DHT22;13298;48.792;9.154;2023-04-03T12:46:53;8.30;99.20
25342;DHT22;13298;48.792;9.154;2023-04-03T12:49:39;8.10;98.50
25342;DHT22;13298;48.792;9.154;2023-04-03T12:52:31;8.00;97.70
25342;DHT22;13298;48.792;9.154;2023-04-03T12:55:00;8.00;98.60
25342;DHT22;13298;48.792;9.154;2023-04-03T12:57:30;8.10;98.60
25342;DHT22;13298;48.792;9.154;2023-04-03T12:59:56;8.20;99.00
25342;DHT22;13298;48.792;9.154;2023-04-03T13:02:23;8.30;99.10
25342;DHT22;13298;48.792;9.154;2023-04-03T13:04:53;8.40;97.90
25342;DHT22;13298;48.792;9.154;2023-04-03T13:07:22;8.40;98.30
25342;DHT22;13298;48.792;9.154;2023-04-03T13:10:13;8.20;97.90
25342;DHT22;13298;48.792;9.154;2023-04-03T13:12:51;8.10;98.80
25342;DHT22;13298;48.792;9.154;2023-04-03T13:15:41;8.20;98.50
25342;DHT22;13298;48.792;9.154;2023-04-03T13:18:28;8.30;97.80
25342;DHT22;13298;48.792;9.154;2023-04-03T13:20:58;8.50;97.10
25342;DHT22;13298;48.792;9.154;2023-04-03T13:23:27;8.50;96.70
25342;DHT22;13298;48.792;9.154;2023-04-03T13:25:53;8.70;96.90
25342;DHT22;13298;48.792;9.154;2023-04-03T13:28:23;8.90;97.00
25342;DHT22;13298;48.792;9.154;2023-04-03T13:33:53;8.90;96.60
25342;DHT22;13298;48.792;9.154;2023-04-03T13:36:26;8.80;96.70
25342;DHT22;13298;48.792;9.154;2023-04-03T13:41:48;8.80;96.40
25342;DHT22;13298;48.792;9.154;2023-04-03T13:46:53;8.70;95.40
25342;DHT22;13298;48.792;9.154;2023-04-03T13:49:34;8.60;95.80
25342;DHT22;13298;48.792;9.154;2023-04-03T13:52:31;8.70;96.10
25342;DHT22;13298;48.792;9.154;2023-04-03T13:55:11;8.70;95.30
25342;DHT22;13298;48.792;9.154;2023-04-03T14:00:51;9.00;95.00
25342;DHT22;13298;48.792;9.154;2023-04-03T14:05:49;9.10;93.40
25342;DHT22;13298;48.792;9.154;2023-04-03T14:08:16;8.90;93.70
25342;DHT22;13298;48.792;9.154;2023-04-03T14:11:01;8.70;94.20
25342;DHT22;13298;48.792;9.154;2023-04-03T14:13:30;8.50;94.80
25342;DHT22;13298;48.792;9.154;2023-04-03T14:15:57;8.30;94.90
25342;DHT22;13298;48.792;9.154;2023-04-03T14:18:22;8.30;95.20
25342;DHT22;13298;48.792;9.154;2023-04-03T14:20:49;8.30;94.60
25342;DHT22;13298;48.792;9.154;2023-04-03T14:23:15;8.30;94.70
25342;DHT22;13298;48.792;9.154;2023-04-03T14:25:42;8.40;95.80
25342;DHT22;13298;48.792;9.154;2023-04-03T14:28:19;8.50;95.30
25342;DHT22;13298;48.792;9.154;2023-04-03T14:30:49;8.50;94.50
25342;DHT22;13298;48.792;9.154;2023-04-03T14:33:19;8.50;94.70
25342;DHT22;13298;48.792;9.154;2023-04-03T14:35:47;8.60;94.70
25342;DHT22;13298;48.792;9.154;2023-04-03T14:38:23;8.60;94.50
25342;DHT22;13298;48.792;9.154;2023-04-03T14:40:52;8.70;94.60
25342;DHT22;13298;48.792;9.154;2023-04-03T14:43:18;8.60;94.40
25342;DHT22;13298;48.792;9.154;2023-04-03T14:45:45;8.60;93.80
25342;DHT22;13298;48.792;9.154;2023-04-03T14:48:21;8.50;93.40
25342;DHT22;13298;48.792;9.154;2023-04-03T14:50:49;8.50;94.10
25342;DHT22;13298;48.792;9.154;2023-04-03T14:53:16;8.60;93.40
25342;DHT22;13298;48.792;9.154;2023-04-03T14:55:45;8.80;93.00
25342;DHT22;13298;48.792;9.154;2023-04-03T14:58:16;8.80;92.70
25342;DHT22;13298;48.792;9.154;2023-04-03T15:00:43;8.70;93.20
25342;DHT22;13298;48.792;9.154;2023-04-03T15:03:15;8.70;93.00
25342;DHT22;13298;48.792;9.154;2023-04-03T15:05:44;8.60;92.10
25342;DHT22;13298;48.792;9.154;2023-04-03T15:08:28;8.50;93.10
25342;DHT22;13298;48.792;9.154;2023-04-03T15:10:55;8.50;93.00
25342;DHT22;13298;48.792;9.154;2023-04-03T15:13:22;8.50;93.60
25342;DHT22;13298;48.792;9.154;2023-04-03T15:15:49;8.50;92.60
25342;DHT22;13298;48.792;9.154;2023-04-03T15:18:18;8.40;93.10
25342;DHT22;13298;48.792;9.154;2023-04-03T15:20:46;8.30;92.60
25342;DHT22;13298;48.792;9.154;2023-04-03T15:23:13;8.20;92.70
25342;DHT22;13298;48.792;9.154;2023-04-03T15:25:50;8.10;92.90
25342;DHT22;13298;48.792;9.154;2023-04-03T15:28:22;8.20;93.00
25342;DHT22;13298;48.792;9.154;2023-04-03T15:30:50;8.20;91.90
25342;DHT22;13298;48.792;9.154;2023-04-03T15:33:16;8.20;92.10
25342;DHT22;13298;48.792;9.154;2023-04-03T15:35:42;8.30;92.80
25342;DHT22;13298;48.792;9.154;2023-04-03T15:38:08;8.30;92.20
25342;DHT22;13298;48.792;9.154;2023-04-03T15:40:35;8.30;93.00
25342;DHT22;13298;48.792;9.154;2023-04-03T15:43:01;8.30;93.10
25342;DHT22;13298;48.792;9.154;2023-04-03T15:45:29;8.20;92.20
25342;DHT22;13298;48.792;9.154;2023-04-03T15:47:56;7.90;92.00
25342;DHT22;13298;48.792;9.154;2023-04-03T15:50:22;7.60;92.80
25342;DHT22;13298;48.792;9.154;2023-04-03T15:52:51;7.30;92.40
25342;DHT22;13298;48.792;9.154;2023-04-03T15:55:24;7.20;92.60
25342;DHT22;13298;48.792;9.154;2023-04-03T15:57:51;7.20;93.30
25342;DHT22;13298;48.792;9.154;2023-04-03T16:00:18;7.20;92.30
25342;DHT22;13298;48.792;9.154;2023-04-03T16:02:46;7.20;91.70
25342;DHT22;13298;48.792;9.154;2023-04-03T16:05:14;7.20;91.90
25342;DHT22;13298;48.792;9.154;2023-04-03T16:07:42;7.20;93.00
25342;DHT22;13298;48.792;9.154;2023-04-03T16:10:09;7.30;92.70
25342;DHT22;13298;48.792;9.154;2023-04-03T16:12:35;7.40;91.90
25342;DHT22;13298;48.792;9.154;2023-04-03T16:15:02;7.30;91.90
25342;DHT22;13298;48.792;9.154;2023-04-03T16:17:28;7.30;92.50
25342;DHT22;13298;48.792;9.154;2023-04-03T16:19:55;7.40;91.40
25342;DHT22;13298;48.792;9.154;2023-04-03T16:22:22;7.50;92.10
25342;DHT22;13298;48.792;9.154;2023-04-03T16:24:49;7.50;92.60
25342;DHT22;13298;48.792;9.154;2023-04-03T16:27:15;7.50;92.40
25342;DHT22;13298;48.792;9.154;2023-04-03T16:29:41;7.40;92.30
25342;DHT22;13298;48.792;9.154;2023-04-03T16:32:07;7.30;92.60
25342;DHT22;13298;48.792;9.154;2023-04-03T16:34:33;7.10;92.80
25342;DHT22;13298;48.792;9.154;2023-04-03T16:36:58;6.80;93.00
25342;DHT22;13298;48.792;9.154;2023-04-03T16:39:24;6.60;92.80
25342;DHT22;13298;48.792;9.154;2023-04-03T16:41:50;6.50;92.70
25342;DHT22;13298;48.792;9.154;2023-04-03T16:44:16;6.60;93.40
25342;DHT22;13298;48.792;9.154;2023-04-03T16:46:42;6.80;93.90
25342;DHT22;13298;48.792;9.154;2023-04-03T16:49:08;7.00;93.70
25342;DHT22;13298;48.792;9.154;2023-04-03T16:51:33;7.20;93.60
25342;DHT22;13298;48.792;9.154;2023-04-03T16:53:59;7.30;92.90
25342;DHT22;13298;48.792;9.154;2023-04-03T16:56:25;7.40;92.60
25342;DHT22;13298;48.792;9.154;2023-04-03T16:58:54;7.50;92.60
25342;DHT22;13298;48.792;9.154;2023-04-03T17:01:21;7.50;91.50
25342;DHT22;13298;48.792;9.154;2023-04-03T17:03:47;7.70;92.40
25342;DHT22;13298;48.792;9.154;2023-04-03T17:06:17;8.10;91.60
25342;DHT22;13298;48.792;9.154;2023-04-03T17:08:46;8.90;91.20
25342;DHT22;13298;48.792;9.154;2023-04-03T17:11:13;9.10;89.50
25342;DHT22;13298;48.792;9.154;2023-04-03T17:13:39;8.60;88.50
25342;DHT22;13298;48.792;9.154;2023-04-03T17:16:08;8.00;90.50
25342;DHT22;13298;48.792;9.154;2023-04-03T17:18:36;7.40;91.00
25342;DHT22;13298;48.792;9.154;2023-04-03T17:21:03;7.00;92.10
25342;DHT22;13298;48.792;9.154;2023-04-03T17:23:29;6.60;92.00
25342;DHT22;13298;48.792;9.154;2023-04-03T17:25:55;6.30;92.60
25342;DHT22;13298;48.792;9.154;2023-04-03T17:28:22;6.10;93.30
25342;DHT22;13298;48.792;9.154;2023-04-03T17:30:53;5.90;93.30
25342;DHT22;13298;48.792;9.154;2023-04-03T17:33:24;5.70;93.70
25342;DHT22;13298;48.792;9.154;2023-04-03T17:35:51;5.60;94.70
25342;DHT22;13298;48.792;9.154;2023-04-03T17:38:17;5.50;95.00
25342;DHT22;13298;48.792;9.154;2023-04-03T17:40:43;5.40;94.40
25342;DHT22;13298;48.792;9.154;2023-04-03T17:43:10;5.20;94.60